Fremont, Ohio
Current Conditions -  °F | °C
As of 2:32 PM on Saturday 20 Dec 2014 (Local Time) from KPCW Reporting Station
Overcast Overcast  
Wind Chill: 34°   Ceiling: 2700
Heat Index: 34°   Visibility: 10mi
Dew Point: 23°   Wind: 0mph
Humidity: 65%   Direction: NA
Pressure: 30.25"   Gusts: NA
Location:  41.35°N, 83.11°W
Report Text: KPCW 201932Z AUTO 00000KT 10SM OVC027 01/M05 A3025 RMK AO2 $
Loading
Personal Weather Stations






























Interactive Weather Map New forecast layout! Learn more

10-Day Weather Forecast

Advertisements
Track Severe Weather on mobile